PWSweather.com
Personal Weather Stations
Station Observations
KAZSIERR7
Canyon De Flores, Sierra Vista, AZ 85650

Canyon De FloresSierra Vista, AZ 85650

Lat: 31.5, Lon: -110.26

Elevation: 4645

Station Type: LaCrosse WS-3610 & Boltek Lightning Detector

http://www.lightningring.com/weather/

High Low Average
Temperature 93.7°F34.3°C 65.6°F18.7°C 79.3°F26.3°C
Dew Point 55.7°F13.2°C 42.7°F5.9°C 50.0°F10.0°C
Winds 9.4 mph 15.1 kmh Calm Calm 2.0 mph S3.2 kmh S
Wind Gusts 69.6 mph112.0 kmh -- 14.0 mph22.5 kmh
Humidity 64% 18% 39%
Pressure 30.05 in1017.6 mb 29.95 in1014.2 mb -
Precipitation 0.00 in0.0 mm - -
Hour Temp Dew Point Humidity Winds Wind Gusts Pressure Precip Precip Rate Daily Precip Total
12:09 AM 70.6°F21.4°C 55.7°F13.2°C 59% Calm Calm 0.8 mph1.3 kmh 30.05 in1017.6 mb 0.00 in0.0 mm 0.00 in/hr0.0 mm/hr 0.00 in0.0 mm
12:19 AM 70.1°F21.2°C 55.7°F13.2°C 60% Calm Calm -- 30.05 in1017.6 mb 0.00 in0.0 mm 0.00 in/hr0.0 mm/hr 0.00 in0.0 mm
12:30 AM 69.6°F20.9°C 55.7°F13.2°C 61% Calm Calm -- 30.05 in1017.6 mb 0.00 in0.0 mm 0.00 in/hr0.0 mm/hr 0.00 in0.0 mm
12:40 AM 69.7°F20.9°C 55.4°F13.0°C 60% Calm Calm -- 30.05 in1017.6 mb 0.00 in0.0 mm 0.00 in/hr0.0 mm/hr 0.00 in0.0 mm
12:51 AM 69.7°F20.9°C 54.4°F12.4°C 58% Calm Calm -- 30.05 in1017.6 mb 0.00 in0.0 mm 0.00 in/hr0.0 mm/hr 0.00 in0.0 mm
01:01 AM 69.6°F20.9°C 53.3°F11.8°C 56% Calm Calm -- 30.04 in1017.3 mb 0.00 in0.0 mm 0.00 in/hr0.0 mm/hr 0.00 in0.0 mm
01:12 AM 69.7°F20.9°C 53.4°F11.9°C 56% 1.2 mph WNW1.9 kmh WNW 1.6 mph2.6 kmh 30.03 in1016.9 mb 0.00 in0.0 mm 0.00 in/hr0.0 mm/hr 0.00 in0.0 mm
01:22 AM 69.7°F20.9°C 52.4°F11.3°C 54% Calm Calm 1.6 mph2.6 kmh 30.03 in1016.9 mb 0.00 in0.0 mm 0.00 in/hr0.0 mm/hr 0.00 in0.0 mm
01:33 AM 69.7°F20.9°C 51.9°F11.1°C 53% Calm Calm 0.8 mph1.3 kmh 30.03 in1016.9 mb 0.00 in0.0 mm 0.00 in/hr0.0 mm/hr 0.00 in0.0 mm
01:43 AM 69.6°F20.9°C 51.3°F10.7°C 52% Calm Calm -- 30.03 in1016.9 mb 0.00 in0.0 mm 0.00 in/hr0.0 mm/hr 0.00 in0.0 mm
01:54 AM 69.4°F20.8°C 50.6°F10.3°C 51% Calm Calm -- 30.03 in1016.9 mb 0.00 in0.0 mm 0.00 in/hr0.0 mm/hr 0.00 in0.0 mm
02:04 AM 68.8°F20.4°C 50.5°F10.3°C 52% Calm Calm -- 30.02 in1016.6 mb 0.00 in0.0 mm 0.00 in/hr0.0 mm/hr 0.00 in0.0 mm
02:15 AM 68.8°F20.4°C 50.0°F10.0°C 51% Calm Calm -- 30.01 in1016.3 mb 0.00 in0.0 mm 0.00 in/hr0.0 mm/hr 0.00 in0.0 mm
02:25 AM 69.4°F20.8°C 49.4°F9.7°C 49% 1.2 mph N1.9 kmh N 2.6 mph4.2 kmh 30.01 in1016.3 mb 0.00 in0.0 mm 0.00 in/hr0.0 mm/hr 0.00 in0.0 mm
02:35 AM 69.0°F20.6°C 49.6°F9.8°C 50% Calm Calm 2.6 mph4.2 kmh 30.02 in1016.6 mb 0.00 in0.0 mm 0.00 in/hr0.0 mm/hr 0.00 in0.0 mm
02:46 AM 67.9°F19.9°C 49.7°F9.8°C 52% Calm Calm -- 30.02 in1016.6 mb 0.00 in0.0 mm 0.00 in/hr0.0 mm/hr 0.00 in0.0 mm
02:57 AM 67.6°F19.8°C 51.0°F10.6°C 55% Calm Calm -- 30.01 in1016.3 mb 0.00 in0.0 mm 0.00 in/hr0.0 mm/hr 0.00 in0.0 mm
03:07 AM 67.2°F19.6°C 51.6°F10.9°C 57% Calm Calm -- 30.02 in1016.6 mb 0.00 in0.0 mm 0.00 in/hr0.0 mm/hr 0.00 in0.0 mm
03:18 AM 67.6°F19.8°C 52.4°F11.3°C 58% 1.2 mph NE1.9 kmh NE 1.6 mph2.6 kmh 30.02 in1016.6 mb 0.00 in0.0 mm 0.00 in/hr0.0 mm/hr 0.00 in0.0 mm
03:28 AM 67.2°F19.6°C 53.9°F12.2°C 62% Calm Calm -- 30.02 in1016.6 mb 0.00 in0.0 mm 0.00 in/hr0.0 mm/hr 0.00 in0.0 mm
03:38 AM 66.0°F18.9°C 53.6°F12.0°C 64% Calm Calm -- 30.02 in1016.6 mb 0.00 in0.0 mm 0.00 in/hr0.0 mm/hr 0.00 in0.0 mm
03:49 AM 65.6°F18.7°C 52.4°F11.3°C 62% Calm Calm -- 30.02 in1016.6 mb 0.00 in0.0 mm 0.00 in/hr0.0 mm/hr 0.00 in0.0 mm
03:59 AM 67.0°F19.4°C 51.9°F11.1°C 58% Calm Calm -- 30.03 in1016.9 mb 0.00 in0.0 mm 0.00 in/hr0.0 mm/hr 0.00 in0.0 mm
04:10 AM 66.7°F19.3°C 51.6°F10.9°C 58% Calm Calm -- 30.03 in1016.9 mb 0.00 in0.0 mm 0.00 in/hr0.0 mm/hr 0.00 in0.0 mm
04:20 AM 66.3°F19.1°C 51.7°F10.9°C 59% Calm Calm 1.2 mph1.9 kmh 30.03 in1016.9 mb 0.00 in0.0 mm 0.00 in/hr0.0 mm/hr 0.00 in0.0 mm
04:31 AM 66.9°F19.4°C 51.8°F11.0°C 58% Calm Calm -- 30.03 in1016.9 mb 0.00 in0.0 mm 0.00 in/hr0.0 mm/hr 0.00 in0.0 mm
04:41 AM 67.4°F19.7°C 51.8°F11.0°C 57% Calm Calm -- 30.03 in1016.9 mb 0.00 in0.0 mm 0.00 in/hr0.0 mm/hr 0.00 in0.0 mm
04:52 AM 66.7°F19.3°C 51.6°F10.9°C 58% Calm Calm -- 30.03 in1016.9 mb 0.00 in0.0 mm 0.00 in/hr0.0 mm/hr 0.00 in0.0 mm
05:02 AM 66.3°F19.1°C 51.2°F10.7°C 58% Calm Calm -- 30.03 in1016.9 mb 0.00 in0.0 mm 0.00 in/hr0.0 mm/hr 0.00 in0.0 mm
05:13 AM 67.0°F19.4°C 50.4°F10.2°C 55% Calm Calm -- 30.03 in1016.9 mb 0.00 in0.0 mm 0.00 in/hr0.0 mm/hr 0.00 in0.0 mm
05:23 AM 66.7°F19.3°C 50.1°F10.1°C 55% Calm Calm -- 30.03 in1016.9 mb 0.00 in0.0 mm 0.00 in/hr0.0 mm/hr 0.00 in0.0 mm
05:34 AM 67.0°F19.4°C 49.9°F9.9°C 54% Calm Calm -- 30.03 in1016.9 mb 0.00 in0.0 mm 0.00 in/hr0.0 mm/hr 0.00 in0.0 mm
05:44 AM 67.0°F19.4°C 49.9°F9.9°C 54% Calm Calm -- 30.04 in1017.3 mb 0.00 in0.0 mm 0.00 in/hr0.0 mm/hr 0.00 in0.0 mm
05:55 AM 67.4°F19.7°C 49.8°F9.9°C 53% Calm Calm -- 30.04 in1017.3 mb 0.00 in0.0 mm 0.00 in/hr0.0 mm/hr 0.00 in0.0 mm
06:05 AM 68.3°F20.2°C 49.5°F9.7°C 51% Calm Calm -- 30.04 in1017.3 mb 0.00 in0.0 mm 0.00 in/hr0.0 mm/hr 0.00 in0.0 mm
06:16 AM 69.2°F20.7°C 52.5°F11.4°C 55% Calm Calm -- 30.04 in1017.3 mb 0.00 in0.0 mm 0.00 in/hr0.0 mm/hr 0.00 in0.0 mm
06:26 AM 69.4°F20.8°C 53.7°F12.1°C 57% Calm Calm -- 30.04 in1017.3 mb 0.00 in0.0 mm 0.00 in/hr0.0 mm/hr 0.00 in0.0 mm
06:37 AM 69.9°F21.1°C 53.6°F12.0°C 56% Calm Calm -- 30.04 in1017.3 mb 0.00 in0.0 mm 0.00 in/hr0.0 mm/hr 0.00 in0.0 mm
06:47 AM 71.0°F21.7°C 54.2°F12.3°C 55% Calm Calm -- 30.04 in1017.3 mb 0.00 in0.0 mm 0.00 in/hr0.0 mm/hr 0.00 in0.0 mm
06:58 AM 72.1°F22.3°C 54.1°F12.3°C 53% Calm Calm -- 30.04 in1017.3 mb 0.00 in0.0 mm 0.00 in/hr0.0 mm/hr 0.00 in0.0 mm
07:08 AM 74.1°F23.4°C 54.9°F12.7°C 51% Calm Calm -- 30.05 in1017.6 mb 0.00 in0.0 mm 0.00 in/hr0.0 mm/hr 0.00 in0.0 mm
07:18 AM 74.1°F23.4°C 53.2°F11.8°C 48% Calm Calm -- 30.05 in1017.6 mb 0.00 in0.0 mm 0.00 in/hr0.0 mm/hr 0.00 in0.0 mm
07:29 AM 74.8°F23.8°C 53.2°F11.8°C 47% Calm Calm -- 30.05 in1017.6 mb 0.00 in0.0 mm 0.00 in/hr0.0 mm/hr 0.00 in0.0 mm
07:39 AM 78.0°F25.6°C 53.7°F12.1°C 43% Calm Calm -- 30.05 in1017.6 mb 0.00 in0.0 mm 0.00 in/hr0.0 mm/hr 0.00 in0.0 mm
07:50 AM 78.2°F25.7°C 53.2°F11.8°C 42% Calm Calm 1.6 mph2.6 kmh 30.05 in1017.6 mb 0.00 in0.0 mm 0.00 in/hr0.0 mm/hr 0.00 in0.0 mm
08:00 AM 79.3°F26.3°C 53.5°F11.9°C 41% Calm Calm -- 30.05 in1017.6 mb 0.00 in0.0 mm 0.00 in/hr0.0 mm/hr 0.00 in0.0 mm
08:11 AM 83.1°F28.4°C 53.2°F11.8°C 36% 0.6 mph S1.0 kmh S 0.8 mph1.3 kmh 30.05 in1017.6 mb 0.00 in0.0 mm 0.00 in/hr0.0 mm/hr 0.00 in0.0 mm
08:21 AM 88.3°F31.3°C 52.8°F11.6°C 30% Calm Calm 0.8 mph1.3 kmh 30.05 in1017.6 mb 0.00 in0.0 mm 0.00 in/hr0.0 mm/hr 0.00 in0.0 mm
08:32 AM 86.3°F30.2°C 52.9°F11.6°C 32% Calm Calm -- 30.05 in1017.6 mb 0.00 in0.0 mm 0.00 in/hr0.0 mm/hr 0.00 in0.0 mm
08:42 AM 90.5°F32.5°C 50.8°F10.4°C 26% Calm Calm -- 30.05 in1017.6 mb 0.00 in0.0 mm 0.00 in/hr0.0 mm/hr 0.00 in0.0 mm
08:53 AM 89.6°F32.0°C 52.1°F11.2°C 28% Calm Calm 2.2 mph3.5 kmh 30.05 in1017.6 mb 0.00 in0.0 mm 0.00 in/hr0.0 mm/hr 0.00 in0.0 mm
09:03 AM 87.4°F30.8°C 53.0°F11.7°C 31% Calm Calm -- 30.05 in1017.6 mb 0.00 in0.0 mm 0.00 in/hr0.0 mm/hr 0.00 in0.0 mm
09:14 AM 88.8°F31.6°C 50.4°F10.2°C 27% 6.3 mph NE10.1 kmh NE 8.4 mph13.5 kmh 30.05 in1017.6 mb 0.00 in0.0 mm 0.00 in/hr0.0 mm/hr 0.00 in0.0 mm
09:24 AM 87.7°F30.9°C 52.3°F11.3°C 30% Calm Calm 8.4 mph13.5 kmh 30.04 in1017.3 mb 0.00 in0.0 mm 0.00 in/hr0.0 mm/hr 0.00 in0.0 mm
09:35 AM 86.3°F30.2°C 52.0°F11.1°C 31% 1.2 mph ESE1.9 kmh ESE 8.8 mph14.2 kmh 30.05 in1017.6 mb 0.00 in0.0 mm 0.00 in/hr0.0 mm/hr 0.00 in0.0 mm
09:45 AM 85.3°F29.6°C 51.1°F10.6°C 31% Calm Calm 8.0 mph12.9 kmh 30.05 in1017.6 mb 0.00 in0.0 mm 0.00 in/hr0.0 mm/hr 0.00 in0.0 mm
09:56 AM 86.2°F30.1°C 50.1°F10.1°C 29% 1.1 mph E1.8 kmh E 4.4 mph7.1 kmh 30.04 in1017.3 mb 0.00 in0.0 mm 0.00 in/hr0.0 mm/hr 0.00 in0.0 mm
10:06 AM 88.1°F31.2°C 50.8°F10.4°C 28% 3.9 mph SE6.3 kmh SE 5.2 mph8.4 kmh 30.04 in1017.3 mb 0.00 in0.0 mm 0.00 in/hr0.0 mm/hr 0.00 in0.0 mm
10:17 AM 87.4°F30.8°C 52.0°F11.1°C 30% Calm Calm 5.2 mph8.4 kmh 30.04 in1017.3 mb 0.00 in0.0 mm 0.00 in/hr0.0 mm/hr 0.00 in0.0 mm
10:27 AM 86.4°F30.2°C 49.3°F9.6°C 28% 4.9 mph ESE7.9 kmh ESE 27.2 mph43.8 kmh 30.04 in1017.3 mb 0.00 in0.0 mm 0.00 in/hr0.0 mm/hr 0.00 in0.0 mm
10:38 AM 86.4°F30.2°C 49.4°F9.7°C 28% 6.3 mph SSE10.1 kmh SSE 33.4 mph53.8 kmh 30.04 in1017.3 mb 0.00 in0.0 mm 0.00 in/hr0.0 mm/hr 0.00 in0.0 mm
10:48 AM 86.0°F30.0°C 49.0°F9.4°C 28% 6.6 mph SSE10.6 kmh SSE 51.4 mph82.7 kmh 30.04 in1017.3 mb 0.00 in0.0 mm 0.00 in/hr0.0 mm/hr 0.00 in0.0 mm
10:59 AM 86.8°F30.4°C 46.7°F8.2°C 25% 3.9 mph ESE6.3 kmh ESE 36.2 mph58.3 kmh 30.04 in1017.3 mb 0.00 in0.0 mm 0.00 in/hr0.0 mm/hr 0.00 in0.0 mm
11:09 AM 86.6°F30.3°C 47.5°F8.6°C 26% 3.7 mph SE6.0 kmh SE 19.6 mph31.5 kmh 30.04 in1017.3 mb 0.00 in0.0 mm 0.00 in/hr0.0 mm/hr 0.00 in0.0 mm
11:20 AM 87.4°F30.8°C 47.2°F8.4°C 25% 5.6 mph SE9.0 kmh SE 28.6 mph46.0 kmh 30.03 in1016.9 mb 0.00 in0.0 mm 0.00 in/hr0.0 mm/hr 0.00 in0.0 mm
11:30 AM 88.2°F31.2°C 47.9°F8.8°C 25% 5.7 mph SE9.2 kmh SE 30.4 mph48.9 kmh 30.03 in1016.9 mb 0.00 in0.0 mm 0.00 in/hr0.0 mm/hr 0.00 in0.0 mm
11:41 AM 89.9°F32.2°C 49.3°F9.6°C 25% 7.9 mph SSW12.7 kmh SSW 35.2 mph56.6 kmh 30.03 in1016.9 mb 0.00 in0.0 mm 0.00 in/hr0.0 mm/hr 0.00 in0.0 mm
11:51 AM 87.9°F31.1°C 46.5°F8.1°C 24% 3.1 mph SE5.0 kmh SE 44.6 mph71.8 kmh 30.02 in1016.6 mb 0.00 in0.0 mm 0.00 in/hr0.0 mm/hr 0.00 in0.0 mm
12:01 PM 88.0°F31.1°C 45.5°F7.5°C 23% 8.3 mph SE13.4 kmh SE 69.6 mph112.0 kmh 30.02 in1016.6 mb 0.00 in0.0 mm 0.00 in/hr0.0 mm/hr 0.00 in0.0 mm
12:12 PM 88.9°F31.6°C 46.3°F7.9°C 23% 4.6 mph S7.4 kmh S 52.2 mph84.0 kmh 30.01 in1016.3 mb 0.00 in0.0 mm 0.00 in/hr0.0 mm/hr 0.00 in0.0 mm
12:22 PM 88.2°F31.2°C 45.6°F7.6°C 23% 5.9 mph SE9.5 kmh SE 51.4 mph82.7 kmh 30.01 in1016.3 mb 0.00 in0.0 mm 0.00 in/hr0.0 mm/hr 0.00 in0.0 mm
12:33 PM 90.8°F32.7°C 47.9°F8.8°C 23% 5.7 mph SSE9.2 kmh SSE 45.6 mph73.4 kmh 30.01 in1016.3 mb 0.00 in0.0 mm 0.00 in/hr0.0 mm/hr 0.00 in0.0 mm
12:43 PM 91.5°F33.1°C 43.4°F6.3°C 19% 9.1 mph S14.6 kmh S 28.0 mph45.1 kmh 30.00 in1015.9 mb 0.00 in0.0 mm 0.00 in/hr0.0 mm/hr 0.00 in0.0 mm
12:54 PM 89.1°F31.7°C 46.4°F8.0°C 23% 2.0 mph SSE3.2 kmh SSE 60.8 mph97.8 kmh 30.00 in1015.9 mb 0.00 in0.0 mm 0.00 in/hr0.0 mm/hr 0.00 in0.0 mm
01:04 PM 89.3°F31.8°C 46.6°F8.1°C 23% 7.2 mph SE11.6 kmh SE 46.0 mph74.0 kmh 29.99 in1015.6 mb 0.00 in0.0 mm 0.00 in/hr0.0 mm/hr 0.00 in0.0 mm
01:15 PM 90.9°F32.7°C 48.0°F8.9°C 23% 3.0 mph SE4.8 kmh SE 63.8 mph102.7 kmh 29.99 in1015.6 mb 0.00 in0.0 mm 0.00 in/hr0.0 mm/hr 0.00 in0.0 mm
01:25 PM 89.5°F31.9°C 44.4°F6.9°C 21% 9.4 mph ESE15.1 kmh ESE 50.0 mph80.5 kmh 29.99 in1015.6 mb 0.00 in0.0 mm 0.00 in/hr0.0 mm/hr 0.00 in0.0 mm
01:36 PM 91.7°F33.2°C 46.3°F7.9°C 21% 4.0 mph SSW6.4 kmh SSW 59.8 mph96.2 kmh 29.98 in1015.2 mb 0.00 in0.0 mm 0.00 in/hr0.0 mm/hr 0.00 in0.0 mm
01:46 PM 91.9°F33.3°C 46.4°F8.0°C 21% 4.6 mph ESE7.4 kmh ESE 46.8 mph75.3 kmh 29.98 in1015.2 mb 0.00 in0.0 mm 0.00 in/hr0.0 mm/hr 0.00 in0.0 mm
01:57 PM 93.0°F33.9°C 46.0°F7.8°C 20% 2.5 mph SSW4.0 kmh SSW 45.6 mph73.4 kmh 29.97 in1014.9 mb 0.00 in0.0 mm 0.00 in/hr0.0 mm/hr 0.00 in0.0 mm
02:07 PM 93.7°F34.3°C 45.2°F7.3°C 19% 2.6 mph SSE4.2 kmh SSE 7.6 mph12.2 kmh 29.97 in1014.9 mb 0.00 in0.0 mm 0.00 in/hr0.0 mm/hr 0.00 in0.0 mm
02:18 PM 92.9°F33.8°C 46.0°F7.8°C 20% 2.3 mph SSW3.7 kmh SSW 48.2 mph77.6 kmh 29.97 in1014.9 mb 0.00 in0.0 mm 0.00 in/hr0.0 mm/hr 0.00 in0.0 mm
02:28 PM 92.9°F33.8°C 45.9°F7.7°C 20% 7.4 mph SW11.9 kmh SW 9.8 mph15.8 kmh 29.97 in1014.9 mb 0.00 in0.0 mm 0.00 in/hr0.0 mm/hr 0.00 in0.0 mm
02:39 PM 93.7°F34.3°C 43.8°F6.6°C 18% 5.3 mph SE8.5 kmh SE 7.0 mph11.3 kmh 29.97 in1014.9 mb 0.00 in0.0 mm 0.00 in/hr0.0 mm/hr 0.00 in0.0 mm
02:51 PM 90.7°F32.6°C 42.8°F6.0°C 19% 1.7 mph ESE2.7 kmh ESE 3.4 mph5.5 kmh 29.96 in1014.6 mb 0.00 in0.0 mm 0.00 in/hr0.0 mm/hr 0.00 in0.0 mm
03:01 PM 91.4°F33.0°C 44.7°F7.1°C 20% Calm Calm 2.6 mph4.2 kmh 29.96 in1014.6 mb 0.00 in0.0 mm 0.00 in/hr0.0 mm/hr 0.00 in0.0 mm
03:12 PM 89.7°F32.1°C 44.6°F7.0°C 21% Calm Calm 4.8 mph7.7 kmh 29.96 in1014.6 mb 0.00 in0.0 mm 0.00 in/hr0.0 mm/hr 0.00 in0.0 mm
03:22 PM 89.0°F31.7°C 42.7°F5.9°C 20% 0.9 mph NE1.4 kmh NE 1.2 mph1.9 kmh 29.95 in1014.2 mb 0.00 in0.0 mm 0.00 in/hr0.0 mm/hr 0.00 in0.0 mm
03:33 PM 89.1°F31.7°C 44.0°F6.7°C 21% Calm Calm 1.2 mph1.9 kmh 29.95 in1014.2 mb 0.00 in0.0 mm 0.00 in/hr0.0 mm/hr 0.00 in0.0 mm
03:43 PM 86.7°F30.4°C 47.6°F8.7°C 26% 6.6 mph WNW10.6 kmh WNW 9.8 mph15.8 kmh 29.95 in1014.2 mb 0.00 in0.0 mm 0.00 in/hr0.0 mm/hr 0.00 in0.0 mm
03:54 PM 85.9°F29.9°C 47.9°F8.8°C 27% 8.9 mph N14.3 kmh N 51.8 mph83.4 kmh 29.95 in1014.2 mb 0.00 in0.0 mm 0.00 in/hr0.0 mm/hr 0.00 in0.0 mm
04:04 PM 85.1°F29.5°C 48.2°F9.0°C 28% 9.4 mph WNW15.1 kmh WNW 54.0 mph86.9 kmh 29.96 in1014.6 mb 0.00 in0.0 mm 0.00 in/hr0.0 mm/hr 0.00 in0.0 mm
04:15 PM 84.8°F29.3°C 48.9°F9.4°C 29% 7.6 mph W12.2 kmh W 56.8 mph91.4 kmh 29.96 in1014.6 mb 0.00 in0.0 mm 0.00 in/hr0.0 mm/hr 0.00 in0.0 mm
04:25 PM 83.6°F28.7°C 47.9°F8.8°C 29% 5.4 mph W8.7 kmh W 46.4 mph74.7 kmh 29.97 in1014.9 mb 0.00 in0.0 mm 0.00 in/hr0.0 mm/hr 0.00 in0.0 mm
04:36 PM 83.6°F28.7°C 47.8°F8.8°C 29% 3.9 mph W6.3 kmh W 56.8 mph91.4 kmh 29.96 in1014.6 mb 0.00 in0.0 mm 0.00 in/hr0.0 mm/hr 0.00 in0.0 mm
04:46 PM 83.7°F28.7°C 47.9°F8.8°C 29% 1.7 mph W2.7 kmh W 4.4 mph7.1 kmh 29.96 in1014.6 mb 0.00 in0.0 mm 0.00 in/hr0.0 mm/hr 0.00 in0.0 mm
04:57 PM 83.9°F28.8°C 48.1°F8.9°C 29% 1.9 mph WSW3.1 kmh WSW 8.0 mph12.9 kmh 29.96 in1014.6 mb 0.00 in0.0 mm 0.00 in/hr0.0 mm/hr 0.00 in0.0 mm
05:07 PM 84.0°F28.9°C 48.2°F9.0°C 29% 0.9 mph W1.4 kmh W 2.6 mph4.2 kmh 29.96 in1014.6 mb 0.00 in0.0 mm 0.00 in/hr0.0 mm/hr 0.00 in0.0 mm
05:18 PM 83.9°F28.8°C 48.1°F8.9°C 29% 6.0 mph NW9.7 kmh NW 8.0 mph12.9 kmh 29.95 in1014.2 mb 0.00 in0.0 mm 0.00 in/hr0.0 mm/hr 0.00 in0.0 mm
05:28 PM 84.0°F28.9°C 47.3°F8.5°C 28% 1.2 mph W1.9 kmh W 2.6 mph4.2 kmh 29.95 in1014.2 mb 0.00 in0.0 mm 0.00 in/hr0.0 mm/hr 0.00 in0.0 mm
05:39 PM 84.0°F28.9°C 48.2°F9.0°C 29% Calm Calm 5.8 mph9.3 kmh 29.96 in1014.6 mb 0.00 in0.0 mm 0.00 in/hr0.0 mm/hr 0.00 in0.0 mm
05:49 PM 83.8°F28.8°C 48.0°F8.9°C 29% Calm Calm 0.8 mph1.3 kmh 29.95 in1014.2 mb 0.00 in0.0 mm 0.00 in/hr0.0 mm/hr 0.00 in0.0 mm
06:00 PM 84.0°F28.9°C 47.2°F8.4°C 28% Calm Calm 30.8 mph49.6 kmh 29.95 in1014.2 mb 0.00 in0.0 mm 0.00 in/hr0.0 mm/hr 0.00 in0.0 mm
06:10 PM 84.3°F29.1°C 46.6°F8.1°C 27% Calm Calm 4.0 mph6.4 kmh 29.94 in1013.9 mb 0.00 in0.0 mm 0.00 in/hr0.0 mm/hr 0.00 in0.0 mm
06:21 PM 84.9°F29.4°C 46.1°F7.8°C 26% 3.9 mph WNW6.3 kmh WNW 5.2 mph8.4 kmh 29.95 in1014.2 mb 0.00 in0.0 mm 0.00 in/hr0.0 mm/hr 0.00 in0.0 mm
06:31 PM 84.7°F29.3°C 48.8°F9.3°C 29% 2.0 mph NNW3.2 kmh NNW 7.0 mph11.3 kmh 29.95 in1014.2 mb 0.00 in0.0 mm 0.00 in/hr0.0 mm/hr 0.00 in0.0 mm
06:42 PM 84.4°F29.1°C 47.6°F8.7°C 28% Calm Calm 4.8 mph7.7 kmh 29.96 in1014.6 mb 0.00 in0.0 mm 0.00 in/hr0.0 mm/hr 0.00 in0.0 mm
06:52 PM 84.9°F29.4°C 48.0°F8.9°C 28% 0.9 mph NNW1.4 kmh NNW 32.6 mph52.5 kmh 29.96 in1014.6 mb 0.00 in0.0 mm 0.00 in/hr0.0 mm/hr 0.00 in0.0 mm
07:03 PM 84.5°F29.2°C 48.6°F9.2°C 29% 3.4 mph NNW5.5 kmh NNW 10.6 mph17.1 kmh 29.97 in1014.9 mb 0.00 in0.0 mm 0.00 in/hr0.0 mm/hr 0.00 in0.0 mm
07:13 PM 83.8°F28.8°C 48.9°F9.4°C 30% 6.3 mph NNW10.1 kmh NNW 8.8 mph14.2 kmh 29.96 in1014.6 mb 0.00 in0.0 mm 0.00 in/hr0.0 mm/hr 0.00 in0.0 mm
07:24 PM 82.5°F28.1°C 51.2°F10.7°C 34% 6.7 mph NW10.8 kmh NW 56.2 mph90.4 kmh 29.96 in1014.6 mb 0.00 in0.0 mm 0.00 in/hr0.0 mm/hr 0.00 in0.0 mm
07:34 PM 82.0°F27.8°C 51.5°F10.8°C 35% 3.0 mph W4.8 kmh W 4.8 mph7.7 kmh 29.97 in1014.9 mb 0.00 in0.0 mm 0.00 in/hr0.0 mm/hr 0.00 in0.0 mm
07:44 PM 81.4°F27.4°C 51.8°F11.0°C 36% 4.1 mph NW6.6 kmh NW 5.8 mph9.3 kmh 29.98 in1015.2 mb 0.00 in0.0 mm 0.00 in/hr0.0 mm/hr 0.00 in0.0 mm
07:55 PM 80.5°F26.9°C 51.7°F10.9°C 37% 4.0 mph NW6.4 kmh NW 30.8 mph49.6 kmh 29.98 in1015.2 mb 0.00 in0.0 mm 0.00 in/hr0.0 mm/hr 0.00 in0.0 mm
08:05 PM 80.4°F26.9°C 52.4°F11.3°C 38% 5.2 mph N8.4 kmh N 33.4 mph53.8 kmh 29.98 in1015.2 mb 0.00 in0.0 mm 0.00 in/hr0.0 mm/hr 0.00 in0.0 mm
08:16 PM 79.8°F26.6°C 51.8°F11.0°C 38% 2.0 mph WNW3.2 kmh WNW 44.2 mph71.1 kmh 29.97 in1014.9 mb 0.00 in0.0 mm 0.00 in/hr0.0 mm/hr 0.00 in0.0 mm
08:26 PM 79.5°F26.4°C 50.8°F10.4°C 37% 0.9 mph NW1.4 kmh NW 5.2 mph8.4 kmh 29.98 in1015.2 mb 0.00 in0.0 mm 0.00 in/hr0.0 mm/hr 0.00 in0.0 mm
08:37 PM 78.7°F25.9°C 51.6°F10.9°C 39% 1.8 mph W2.9 kmh W 4.8 mph7.7 kmh 29.98 in1015.2 mb 0.00 in0.0 mm 0.00 in/hr0.0 mm/hr 0.00 in0.0 mm
08:47 PM 77.7°F25.4°C 52.1°F11.2°C 41% 9.4 mph NNW15.1 kmh NNW 55.4 mph89.2 kmh 29.98 in1015.2 mb 0.00 in0.0 mm 0.00 in/hr0.0 mm/hr 0.00 in0.0 mm
08:58 PM 77.1°F25.1°C 51.5°F10.8°C 41% 14.4 mph NW23.2 kmh NW 52.2 mph84.0 kmh 29.98 in1015.2 mb 0.00 in0.0 mm 0.00 in/hr0.0 mm/hr 0.00 in0.0 mm
09:08 PM 77.1°F25.1°C 50.1°F10.1°C 39% 7.9 mph NW12.7 kmh NW 39.8 mph64.1 kmh 29.98 in1015.2 mb 0.00 in0.0 mm 0.00 in/hr0.0 mm/hr 0.00 in0.0 mm
09:19 PM 77.3°F25.2°C 48.1°F8.9°C 36% 9.1 mph NW14.6 kmh NW 54.0 mph86.9 kmh 29.98 in1015.2 mb 0.00 in0.0 mm 0.00 in/hr0.0 mm/hr 0.00 in0.0 mm
09:29 PM 77.5°F25.3°C 47.5°F8.6°C 35% 8.4 mph NW13.5 kmh NW 46.0 mph74.0 kmh 29.98 in1015.2 mb 0.00 in0.0 mm 0.00 in/hr0.0 mm/hr 0.00 in0.0 mm
09:40 PM 77.5°F25.3°C 48.3°F9.1°C 36% 8.9 mph NE14.3 kmh NE 63.4 mph102.0 kmh 29.99 in1015.6 mb 0.00 in0.0 mm 0.00 in/hr0.0 mm/hr 0.00 in0.0 mm
09:50 PM 76.8°F24.9°C 48.4°F9.1°C 37% 5.7 mph NE9.2 kmh NE 28.0 mph45.1 kmh 30.00 in1015.9 mb 0.00 in0.0 mm 0.00 in/hr0.0 mm/hr 0.00 in0.0 mm
10:01 PM 76.6°F24.8°C 49.7°F9.8°C 39% 4.8 mph NE7.7 kmh NE 10.2 mph16.4 kmh 30.01 in1016.3 mb 0.00 in0.0 mm 0.00 in/hr0.0 mm/hr 0.00 in0.0 mm
10:11 PM 76.0°F24.4°C 49.1°F9.5°C 39% Calm Calm 8.4 mph13.5 kmh 30.01 in1016.3 mb 0.00 in0.0 mm 0.00 in/hr0.0 mm/hr 0.00 in0.0 mm
10:22 PM 75.7°F24.3°C 52.2°F11.2°C 44% Calm Calm -- 30.02 in1016.6 mb 0.00 in0.0 mm 0.00 in/hr0.0 mm/hr 0.00 in0.0 mm
10:32 PM 75.3°F24.1°C 51.9°F11.1°C 44% Calm Calm -- 30.02 in1016.6 mb 0.00 in0.0 mm 0.00 in/hr0.0 mm/hr 0.00 in0.0 mm
10:43 PM 74.6°F23.7°C 51.8°F11.0°C 45% Calm Calm -- 30.02 in1016.6 mb 0.00 in0.0 mm 0.00 in/hr0.0 mm/hr 0.00 in0.0 mm
10:53 PM 74.2°F23.4°C 52.1°F11.2°C 46% Calm Calm -- 30.02 in1016.6 mb 0.00 in0.0 mm 0.00 in/hr0.0 mm/hr 0.00 in0.0 mm
11:04 PM 73.9°F23.3°C 52.4°F11.3°C 47% Calm Calm -- 30.02 in1016.6 mb 0.00 in0.0 mm 0.00 in/hr0.0 mm/hr 0.00 in0.0 mm
11:14 PM 73.3°F22.9°C 51.9°F11.1°C 47% Calm Calm -- 30.02 in1016.6 mb 0.00 in0.0 mm 0.00 in/hr0.0 mm/hr 0.00 in0.0 mm
11:24 PM 72.8°F22.7°C 52.0°F11.1°C 48% Calm Calm -- 30.01 in1016.3 mb 0.00 in0.0 mm 0.00 in/hr0.0 mm/hr 0.00 in0.0 mm
11:35 PM 72.4°F22.4°C 52.2°F11.2°C 49% Calm Calm -- 30.00 in1015.9 mb 0.00 in0.0 mm 0.00 in/hr0.0 mm/hr 0.00 in0.0 mm
11:45 PM 72.1°F22.3°C 51.4°F10.8°C 48% Calm Calm -- 30.01 in1016.3 mb 0.00 in0.0 mm 0.00 in/hr0.0 mm/hr 0.00 in0.0 mm
11:56 PM 71.5°F21.9°C 49.0°F9.4°C 45% Calm Calm -- 30.00 in1015.9 mb 0.00 in0.0 mm 0.00 in/hr0.0 mm/hr 0.00 in0.0 mm